Time;durP1;ratioP1;P1;durP2;ratioP2;P2;SDS_P1;SDS_P2;PMS_P1;PMS_P2;Temp;Humidity;BMP_temperature;BMP_pressure;BME280_temperature;BME280_humidity;BME280_pressure;Samples;Min_cycle;Max_cycle;Signal;HPM_P1;HPM_P2
2022/04/16 00:01:09;;;;;;;40.40;25.02;;;9.50;99.90;;;;;;4362072;28;10000875;-66
2022/04/16 00:03:35;;;;;;;36.55;24.42;;;9.50;99.90;;;;;;5040410;28;20037;-66
2022/04/16 00:06:01;;;;;;;40.00;24.63;;;9.50;99.90;;;;;;5044869;28;20094;-66
2022/04/16 00:08:29;;;;;;;37.55;23.67;;;9.50;99.90;;;;;;5045711;28;20032;-66
2022/04/16 00:10:55;;;;;;;40.67;26.77;;;9.50;99.90;;;;;;5042336;28;20031;-66
2022/04/16 00:13:22;;;;;;;39.30;25.48;;;9.40;99.90;;;;;;5037156;28;20056;-66
2022/04/16 00:15:53;;;;;;;35.47;23.98;;;9.40;99.90;;;;;;5041428;28;20024;-66
2022/04/16 00:18:19;;;;;;;36.67;25.30;;;9.40;99.90;;;;;;5040790;28;20072;-66
2022/04/16 00:20:48;;;;;;;40.15;25.25;;;9.40;99.90;;;;;;5043907;28;20025;-66
2022/04/16 00:23:14;;;;;;;40.67;25.38;;;9.40;99.90;;;;;;5039756;28;20075;-66
2022/04/16 00:25:41;;;;;;;38.70;26.13;;;9.40;99.90;;;;;;5038392;28;20025;-66
2022/04/16 00:28:08;;;;;;;39.67;26.27;;;9.40;99.90;;;;;;5041356;28;20051;-66
2022/04/16 00:30:39;;;;;;;35.53;24.08;;;9.40;99.90;;;;;;5039450;28;20053;-66
2022/04/16 00:33:05;;;;;;;37.63;24.70;;;9.40;99.90;;;;;;5050488;28;20677;-66
2022/04/16 00:35:32;;;;;;;37.97;24.92;;;9.40;99.90;;;;;;5081100;28;20047;-65
2022/04/16 00:37:57;;;;;;;38.33;25.15;;;9.40;99.90;;;;;;5083596;28;20050;-65
2022/04/16 00:40:23;;;;;;;39.28;26.13;;;9.30;99.90;;;;;;5084977;28;20698;-66
2022/04/16 00:42:49;;;;;;;38.78;25.48;;;9.30;99.90;;;;;;5083863;28;20027;-66
2022/04/16 00:45:15;;;;;;;40.13;25.60;;;9.30;99.90;;;;;;5077773;28;20016;-65
2022/04/16 00:47:41;;;;;;;39.25;24.77;;;9.30;99.90;;;;;;5082134;28;20939;-66
2022/04/16 00:50:09;;;;;;;37.30;23.95;;;9.30;99.90;;;;;;5084009;28;20032;-66
2022/04/16 00:52:38;;;;;;;38.40;25.38;;;9.30;99.90;;;;;;5080308;28;20035;-66
2022/04/16 00:55:06;;;;;;;37.15;25.02;;;9.30;99.90;;;;;;5074351;28;20028;-65
2022/04/16 00:57:32;;;;;;;42.63;25.40;;;9.30;99.90;;;;;;5080344;28;20031;-66
2022/04/16 01:00:00;;;;;;;40.55;25.40;;;9.30;99.90;;;;;;5078942;28;20089;-65
2022/04/16 01:02:26;;;;;;;35.10;24.38;;;9.30;99.90;;;;;;5083381;28;20110;-65
2022/04/16 01:04:52;;;;;;;37.35;24.67;;;9.30;99.90;;;;;;5075362;28;20014;-66
2022/04/16 01:07:25;;;;;;;40.45;24.75;;;9.20;99.90;;;;;;5080780;28;20142;-65
2022/04/16 01:09:51;;;;;;;37.65;25.02;;;9.20;99.90;;;;;;5079815;28;20038;-66
2022/04/16 01:12:17;;;;;;;45.25;25.92;;;9.20;99.90;;;;;;5081739;28;20499;-66
2022/04/16 01:14:45;;;;;;;36.83;24.48;;;9.20;99.90;;;;;;5074744;28;20445;-66
2022/04/16 01:17:12;;;;;;;37.95;25.15;;;9.20;99.90;;;;;;5078902;28;20377;-66
2022/04/16 01:19:38;;;;;;;37.20;23.95;;;9.10;99.90;;;;;;5074787;28;20042;-66
2022/04/16 01:22:05;;;;;;;43.97;26.13;;;9.20;99.90;;;;;;5079690;28;20021;-66
2022/04/16 01:24:31;;;;;;;37.70;24.90;;;9.20;99.90;;;;;;5076252;28;20023;-66
2022/04/16 01:26:58;;;;;;;39.58;25.38;;;9.20;99.90;;;;;;5078504;28;20032;-66
2022/04/16 01:29:24;;;;;;;40.78;24.77;;;9.10;99.90;;;;;;5082616;28;20096;-66
2022/04/16 01:31:50;;;;;;;38.75;25.50;;;9.20;99.90;;;;;;5078499;28;20024;-66
2022/04/16 01:34:17;;;;;;;36.35;24.55;;;9.10;99.90;;;;;;5079920;28;20017;-66
2022/04/16 01:36:43;;;;;;;41.90;25.63;;;9.10;99.90;;;;;;5079937;28;20020;-66
2022/04/16 01:39:09;;;;;;;38.65;24.48;;;9.10;99.90;;;;;;5079833;28;20036;-65
2022/04/16 01:41:35;;;;;;;40.70;25.77;;;9.10;99.90;;;;;;5080206;28;20020;-66
2022/04/16 01:44:01;;;;;;;39.25;26.02;;;9.00;99.90;;;;;;5081876;28;20046;-66
2022/04/16 01:46:27;;;;;;;39.97;25.55;;;9.00;99.90;;;;;;5077207;28;20028;-66
2022/04/16 01:48:53;;;;;;;39.85;25.05;;;9.00;99.90;;;;;;5078835;28;20046;-65
2022/04/16 01:51:20;;;;;;;36.35;24.92;;;9.00;99.90;;;;;;5080429;28;20399;-66
2022/04/16 01:53:46;;;;;;;36.28;24.83;;;9.00;99.90;;;;;;5079069;28;20028;-66
2022/04/16 01:56:12;;;;;;;36.10;24.02;;;9.00;99.90;;;;;;5081286;28;20059;-65
2022/04/16 01:58:43;;;;;;;33.95;24.33;;;9.00;99.90;;;;;;5093413;28;20032;-65
2022/04/16 02:01:09;;;;;;;32.70;22.65;;;9.00;99.90;;;;;;5091686;28;20114;-65
2022/04/16 02:03:36;;;;;;;32.25;22.65;;;9.00;99.90;;;;;;5086516;28;20111;-65
2022/04/16 02:06:05;;;;;;;36.35;22.85;;;9.00;99.90;;;;;;5090464;28;20099;-65
2022/04/16 02:08:31;;;;;;;33.40;23.38;;;9.00;99.90;;;;;;5088074;28;20036;-65
2022/04/16 02:10:56;;;;;;;32.80;21.65;;;9.00;99.90;;;;;;5097038;28;20194;-66
2022/04/16 02:13:22;;;;;;;31.67;22.13;;;9.00;99.90;;;;;;5090345;28;20542;-66
2022/04/16 02:15:48;;;;;;;29.08;20.80;;;9.00;99.90;;;;;;5089434;28;20012;-66
2022/04/16 02:18:13;;;;;;;31.50;21.17;;;9.00;99.90;;;;;;5096202;28;20022;-66
2022/04/16 02:20:41;;;;;;;30.35;21.33;;;9.00;99.90;;;;;;5099969;28;20464;-66
2022/04/16 02:23:08;;;;;;;30.00;20.13;;;9.00;99.90;;;;;;5089901;28;20103;-66
2022/04/16 02:25:34;;;;;;;25.88;19.63;;;9.00;99.90;;;;;;5088616;28;20543;-66
2022/04/16 02:27:59;;;;;;;28.00;19.48;;;8.90;99.90;;;;;;5096403;28;20120;-66
2022/04/16 02:30:25;;;;;;;27.58;19.73;;;9.00;99.90;;;;;;5093655;28;20535;-66
2022/04/16 02:32:55;;;;;;;27.00;19.13;;;8.90;99.90;;;;;;5091126;28;20027;-66
2022/04/16 02:35:21;;;;;;;27.55;19.88;;;8.90;99.90;;;;;;5085233;28;20028;-66
2022/04/16 02:37:47;;;;;;;25.25;18.13;;;9.00;99.90;;;;;;5090071;28;20036;-66
2022/04/16 02:40:13;;;;;;;25.05;17.90;;;9.00;99.90;;;;;;5093959;28;20027;-66
2022/04/16 02:42:41;;;;;;;25.02;18.10;;;8.90;99.90;;;;;;5087810;28;20043;-66
2022/04/16 02:47:53;;;;;;;22.95;16.55;;;8.90;99.90;;;;;;5095626;28;20031;-66
2022/04/16 02:50:20;;;;;;;23.15;15.65;;;8.90;99.90;;;;;;5095176;28;20442;-66
2022/04/16 02:52:48;;;;;;;21.88;15.90;;;8.90;99.90;;;;;;5093265;28;20174;-66
2022/04/16 02:55:17;;;;;;;20.85;15.38;;;8.90;99.90;;;;;;5087336;28;20028;-66
2022/04/16 02:57:44;;;;;;;22.38;16.02;;;8.90;99.90;;;;;;5085523;28;20016;-66
2022/04/16 03:00:10;;;;;;;20.85;15.27;;;8.80;99.90;;;;;;5088843;28;20032;-66
2022/04/16 03:02:37;;;;;;;22.75;15.38;;;8.80;99.90;;;;;;5091152;28;20024;-66
2022/04/16 03:05:06;;;;;;;21.48;15.30;;;8.80;99.90;;;;;;5091979;28;20219;-65
2022/04/16 03:07:35;;;;;;;22.85;15.35;;;8.80;99.90;;;;;;5097487;28;20031;-65
2022/04/16 03:10:02;;;;;;;20.65;15.25;;;8.80;99.90;;;;;;5088610;28;20443;-66
2022/04/16 03:12:44;;;;;;;22.25;15.55;;;8.80;99.90;;;;;;5092869;28;20400;-65
2022/04/16 03:17:55;;;;;;;20.42;14.35;;;8.70;99.90;;;;;;5089001;28;20104;-65
2022/04/16 03:20:21;;;;;;;22.15;15.48;;;8.70;99.90;;;;;;5092202;28;20028;-65
2022/04/16 03:22:46;;;;;;;22.98;15.20;;;8.70;99.90;;;;;;5087161;28;20046;-66
2022/04/16 03:25:12;;;;;;;23.67;14.82;;;8.70;99.90;;;;;;5092602;28;20047;-65
2022/04/16 03:27:37;;;;;;;22.95;15.45;;;8.70;99.90;;;;;;5087587;28;20380;-65
2022/04/16 03:30:05;;;;;;;21.75;14.93;;;8.60;99.90;;;;;;5090744;28;20121;-65
2022/04/16 03:32:31;;;;;;;22.75;15.43;;;8.60;99.90;;;;;;5087950;28;23475;-66
2022/04/16 03:34:57;;;;;;;19.92;13.82;;;8.60;99.90;;;;;;5087944;28;20020;-65
2022/04/16 03:37:24;;;;;;;22.65;15.02;;;8.60;99.90;;;;;;5089019;28;20027;-66
2022/04/16 03:39:50;;;;;;;20.50;14.50;;;8.60;99.90;;;;;;5091453;28;20494;-66
2022/04/16 03:42:18;;;;;;;21.80;14.43;;;8.60;99.90;;;;;;5093356;28;20028;-66
2022/04/16 03:44:43;;;;;;;22.30;14.25;;;8.50;99.90;;;;;;5086792;28;20024;-66
2022/04/16 03:47:10;;;;;;;21.33;14.27;;;8.50;99.90;;;;;;5093046;28;20031;-66
2022/04/16 03:49:36;;;;;;;19.60;13.75;;;8.50;99.90;;;;;;5092313;28;20533;-65
2022/04/16 03:52:03;;;;;;;21.25;14.45;;;8.50;99.90;;;;;;5089119;28;20467;-66
2022/04/16 03:59:59;;;;;;;20.63;13.60;;;8.40;99.90;;;;;;5091401;28;20070;-66
2022/04/16 04:02:25;;;;;;;22.65;14.45;;;8.40;99.90;;;;;;5088318;28;20028;-66
2022/04/16 04:04:51;;;;;;;21.85;14.88;;;8.40;99.90;;;;;;5094251;28;20050;-66
2022/04/16 04:07:17;;;;;;;19.85;14.00;;;8.30;99.90;;;;;;5099098;28;20058;-65
2022/04/16 04:09:44;;;;;;;20.42;14.10;;;8.30;99.90;;;;;;5093365;28;20047;-66
2022/04/16 04:12:11;;;;;;;21.33;13.63;;;8.30;99.90;;;;;;5093786;28;20042;-66
2022/04/16 04:14:38;;;;;;;19.55;13.98;;;8.30;99.90;;;;;;5090888;28;20028;-65
2022/04/16 04:17:06;;;;;;;19.52;13.25;;;8.30;99.90;;;;;;5091235;28;20044;-66
2022/04/16 04:19:36;;;;;;;19.52;13.43;;;8.30;99.90;;;;;;5093740;28;20495;-65
2022/04/16 04:22:03;;;;;;;19.83;13.77;;;8.30;99.90;;;;;;5089789;28;20032;-66
2022/04/16 04:24:28;;;;;;;19.85;13.63;;;8.30;99.90;;;;;;5090654;28;20070;-65
2022/04/16 04:26:59;;;;;;;21.00;14.18;;;8.20;99.90;;;;;;5097701;28;20492;-65
2022/04/16 04:29:25;;;;;;;22.50;14.35;;;8.20;99.90;;;;;;5092416;28;20044;-65
2022/04/16 04:31:50;;;;;;;21.35;14.23;;;8.20;99.90;;;;;;5088775;28;20636;-65
2022/04/16 04:34:16;;;;;;;21.42;13.82;;;8.20;99.90;;;;;;5089983;28;20115;-66
2022/04/16 04:36:42;;;;;;;21.60;14.13;;;8.20;99.90;;;;;;5085659;28;20031;-65
2022/04/16 04:39:07;;;;;;;22.70;14.88;;;8.20;99.90;;;;;;5087451;28;20039;-66
2022/04/16 04:41:33;;;;;;;23.27;15.13;;;8.10;99.90;;;;;;5088195;28;20392;-65
2022/04/16 04:43:58;;;;;;;22.52;14.80;;;8.10;99.90;;;;;;5101695;28;20412;-66
2022/04/16 04:46:24;;;;;;;22.67;14.43;;;8.10;99.90;;;;;;5094673;28;20028;-65
2022/04/16 04:48:50;;;;;;;24.20;14.52;;;8.10;99.90;;;;;;5092027;28;20806;-65
2022/04/16 04:51:15;;;;;;;23.92;14.52;;;8.10;99.90;;;;;;5100902;28;20027;-65
2022/04/16 04:53:41;;;;;;;21.10;13.18;;;8.00;99.90;;;;;;5091487;28;20167;-66
2022/04/16 04:56:06;;;;;;;21.55;13.60;;;8.00;99.90;;;;;;5096920;28;20032;-66
2022/04/16 04:58:32;;;;;;;20.33;12.80;;;8.00;99.90;;;;;;5093436;28;20474;-65
2022/04/16 05:00:58;;;;;;;19.98;12.68;;;8.00;99.90;;;;;;5100607;28;20295;-66
2022/04/16 05:03:25;;;;;;;19.20;11.73;;;8.10;99.90;;;;;;5097615;28;20024;-65
2022/04/16 05:05:51;;;;;;;18.42;11.65;;;8.00;99.90;;;;;;5082077;28;20028;-66
2022/04/16 05:08:17;;;;;;;17.95;11.23;;;8.00;99.90;;;;;;5091822;28;20041;-66
2022/04/16 05:10:42;;;;;;;18.75;11.35;;;8.00;99.90;;;;;;5091841;28;20502;-66
2022/04/16 05:13:08;;;;;;;17.95;11.68;;;8.00;99.90;;;;;;5092869;28;20777;-66
2022/04/16 05:15:33;;;;;;;18.30;10.77;;;8.00;99.90;;;;;;5100311;28;20046;-66
2022/04/16 05:17:59;;;;;;;17.77;10.82;;;8.00;99.90;;;;;;5094755;28;20392;-66
2022/04/16 05:20:24;;;;;;;15.30;10.50;;;8.00;99.90;;;;;;5086759;28;20088;-66
2022/04/16 05:22:50;;;;;;;17.67;10.57;;;8.00;99.90;;;;;;4377681;28;10001101;-66
2022/04/16 05:25:16;;;;;;;19.85;10.50;;;8.00;99.90;;;;;;5066915;28;20063;-65
2022/04/16 05:27:41;;;;;;;18.25;10.30;;;7.90;99.90;;;;;;5075347;28;20040;-64
2022/04/16 05:30:13;;;;;;;18.48;10.65;;;8.00;99.90;;;;;;5070857;28;20522;-65
2022/04/16 05:32:40;;;;;;;16.52;10.27;;;7.90;99.90;;;;;;5066682;28;20032;-64
2022/04/16 05:35:07;;;;;;;17.23;10.30;;;7.90;99.90;;;;;;5069625;28;20051;-65
2022/04/16 05:37:34;;;;;;;16.98;10.55;;;7.90;99.90;;;;;;5066524;28;20103;-64
2022/04/16 05:40:00;;;;;;;16.83;10.13;;;7.90;99.90;;;;;;5073487;28;20041;-65
2022/04/16 05:42:26;;;;;;;16.75;10.55;;;7.90;99.90;;;;;;5080657;28;20039;-64
2022/04/16 05:44:51;;;;;;;15.98;10.02;;;7.90;99.90;;;;;;5067308;28;20133;-64
2022/04/16 05:47:17;;;;;;;17.10;10.45;;;7.90;99.90;;;;;;5077217;28;20487;-65
2022/04/16 05:49:42;;;;;;;18.00;10.98;;;7.90;99.90;;;;;;5069334;28;20055;-65
2022/04/16 05:52:09;;;;;;;17.10;10.05;;;8.00;99.90;;;;;;5070744;28;20044;-65
2022/04/16 05:54:38;;;;;;;14.75;9.50;;;7.90;99.90;;;;;;5078906;28;20035;-65
2022/04/16 05:57:04;;;;;;;15.40;9.32;;;8.00;99.90;;;;;;5091915;28;20043;-65
2022/04/16 05:59:30;;;;;;;14.85;9.15;;;8.00;99.90;;;;;;5093378;28;20036;-65
2022/04/16 06:01:56;;;;;;;16.42;9.13;;;8.10;99.90;;;;;;5086584;28;20035;-65
2022/04/16 06:04:21;;;;;;;13.88;9.25;;;8.10;99.90;;;;;;5088465;28;20032;-65
2022/04/16 06:06:47;;;;;;;14.88;8.65;;;8.10;99.90;;;;;;5098451;28;20031;-65
2022/04/16 06:09:13;;;;;;;10.43;7.10;;;8.10;99.90;;;;;;5090565;28;20445;-65
2022/04/16 06:11:38;;;;;;;10.70;7.20;;;8.10;99.90;;;;;;5090245;28;20440;-65
2022/04/16 06:14:04;;;;;;;12.73;7.80;;;8.10;99.90;;;;;;5094430;28;20059;-65
2022/04/16 06:16:30;;;;;;;12.50;7.88;;;8.00;99.90;;;;;;5090024;28;20403;-65
2022/04/16 06:18:55;;;;;;;9.90;6.80;;;8.00;99.90;;;;;;5093653;28;20032;-65
2022/04/16 06:21:21;;;;;;;14.48;7.78;;;8.00;99.90;;;;;;5090046;28;20032;-64
2022/04/16 06:23:47;;;;;;;14.07;7.88;;;8.00;99.90;;;;;;5088035;28;20032;-65
2022/04/16 06:26:12;;;;;;;12.38;7.60;;;8.10;99.90;;;;;;5084744;28;20453;-64
2022/04/16 06:28:38;;;;;;;11.40;7.68;;;8.20;99.90;;;;;;5088934;28;20042;-66
2022/04/16 06:31:04;;;;;;;14.70;7.90;;;8.30;99.90;;;;;;5090040;28;20032;-64
2022/04/16 06:33:30;;;;;;;10.88;6.93;;;8.40;99.90;;;;;;5098483;28;20028;-65
2022/04/16 06:35:55;;;;;;;10.90;6.85;;;8.40;99.90;;;;;;5091631;28;20039;-64
2022/04/16 06:38:21;;;;;;;11.35;6.95;;;8.40;99.90;;;;;;5087642;28;20467;-66
2022/04/16 06:40:46;;;;;;;16.10;7.50;;;8.50;99.90;;;;;;4732264;28;10000062;-66
2022/04/16 06:43:12;;;;;;;11.38;7.10;;;8.40;99.90;;;;;;5094409;28;20545;-65
2022/04/16 06:45:38;;;;;;;10.60;6.10;;;8.40;99.90;;;;;;5092374;28;20085;-65
2022/04/16 06:48:04;;;;;;;9.98;6.32;;;8.40;99.90;;;;;;5091423;28;20032;-64
2022/04/16 06:50:30;;;;;;;9.68;6.05;;;8.50;99.90;;;;;;5094544;28;20384;-65
2022/04/16 06:52:56;;;;;;;9.48;5.97;;;8.60;99.90;;;;;;5093776;28;20042;-65
2022/04/16 06:55:21;;;;;;;9.95;5.13;;;8.70;99.90;;;;;;5094396;28;20028;-65
2022/04/16 06:57:47;;;;;;;8.45;4.85;;;8.90;99.90;;;;;;5094313;28;20020;-65
2022/04/16 07:00:13;;;;;;;8.43;4.60;;;9.00;99.90;;;;;;5093437;28;20088;-65
2022/04/16 07:02:39;;;;;;;6.53;4.10;;;8.90;99.90;;;;;;5097939;28;20035;-64
2022/04/16 07:05:07;;;;;;;8.30;4.40;;;8.80;99.90;;;;;;5092828;28;20175;-65
2022/04/16 07:07:33;;;;;;;8.65;4.30;;;8.80;99.90;;;;;;5089291;28;20017;-66
2022/04/16 07:09:59;;;;;;;5.07;3.65;;;8.80;99.90;;;;;;5098366;28;20146;-65
2022/04/16 07:12:25;;;;;;;7.22;3.30;;;8.80;99.90;;;;;;5096695;28;20070;-65
2022/04/16 07:14:51;;;;;;;6.90;3.47;;;8.80;99.90;;;;;;5088367;28;20032;-64
2022/04/16 07:17:16;;;;;;;5.43;3.40;;;8.80;99.90;;;;;;5097168;28;20035;-65
2022/04/16 07:19:42;;;;;;;4.93;3.30;;;8.70;99.90;;;;;;5089785;28;20479;-65
2022/04/16 07:22:08;;;;;;;5.07;3.38;;;8.70;99.90;;;;;;5086127;28;20151;-65
2022/04/16 07:24:37;;;;;;;4.80;3.20;;;8.70;99.90;;;;;;5085832;28;20032;-65
2022/04/16 07:27:04;;;;;;;7.60;3.40;;;8.80;99.90;;;;;;5091970;28;20051;-65
2022/04/16 07:29:30;;;;;;;6.93;3.95;;;8.70;99.90;;;;;;5094479;28;20044;-66
2022/04/16 07:31:56;;;;;;;6.68;3.72;;;8.80;99.90;;;;;;5089161;28;20593;-66
2022/04/16 07:34:22;;;;;;;7.20;3.30;;;8.80;99.90;;;;;;5084068;28;20028;-66
2022/04/16 07:36:48;;;;;;;6.53;3.58;;;8.90;99.90;;;;;;5094684;28;20380;-66
2022/04/16 07:39:14;;;;;;;6.05;3.30;;;9.00;99.90;;;;;;5096403;28;20478;-65
2022/04/16 07:41:40;;;;;;;4.88;3.90;;;9.10;99.90;;;;;;5087986;28;20024;-66
2022/04/16 07:44:06;;;;;;;4.28;3.42;;;9.10;99.90;;;;;;5085687;28;20202;-66
2022/04/16 07:46:35;;;;;;;5.25;3.65;;;9.20;99.90;;;;;;5086949;28;20024;-66
2022/04/16 07:49:02;;;;;;;5.22;3.38;;;9.20;99.90;;;;;;5087537;28;20127;-66
2022/04/16 07:51:29;;;;;;;4.75;2.90;;;9.30;99.90;;;;;;5087642;28;20336;-66
2022/04/16 07:53:58;;;;;;;5.82;3.00;;;9.30;99.90;;;;;;5087111;28;20439;-66
2022/04/16 07:56:24;;;;;;;5.57;3.03;;;9.30;99.90;;;;;;5087177;28;20741;-66
2022/04/16 07:58:50;;;;;;;4.35;3.20;;;9.30;99.90;;;;;;5087525;28;20237;-65
2022/04/16 08:01:16;;;;;;;10.30;3.20;;;9.20;99.90;;;;;;5086686;28;20047;-66
2022/04/16 08:03:42;;;;;;;8.27;3.63;;;9.20;99.90;;;;;;5085345;28;20028;-65
2022/04/16 08:06:07;;;;;;;5.05;3.28;;;9.20;99.90;;;;;;5087290;28;20369;-65
2022/04/16 08:08:33;;;;;;;5.50;3.10;;;9.30;99.90;;;;;;5086856;28;20442;-66
2022/04/16 08:10:59;;;;;;;3.35;2.63;;;9.30;99.90;;;;;;5088970;28;20024;-65
2022/04/16 08:13:25;;;;;;;4.07;2.80;;;9.30;99.90;;;;;;5087199;28;20032;-66
2022/04/16 08:15:51;;;;;;;4.25;2.80;;;9.30;99.90;;;;;;5085317;28;20028;-66
2022/04/16 08:18:17;;;;;;;3.15;2.60;;;9.40;99.90;;;;;;5086926;28;20459;-66
2022/04/16 08:20:43;;;;;;;1.58;1.25;;;9.40;99.90;;;;;;5095152;28;20327;-66
2022/04/16 08:23:10;;;;;;;2.13;1.30;;;9.40;99.90;;;;;;5107144;28;20016;-66
2022/04/16 08:28:04;;;;;;;3.13;2.20;;;9.60;99.90;;;;;;5089430;28;20103;-66
2022/04/16 08:30:30;;;;;;;3.67;1.48;;;9.70;99.90;;;;;;5086843;28;20648;-66
2022/04/16 08:32:56;;;;;;;2.17;0.90;;;9.90;99.50;;;;;;5087591;28;20040;-66
2022/04/16 08:35:22;;;;;;;7.35;1.50;;;9.90;93.80;;;;;;5084876;28;20085;-66
2022/04/16 08:37:49;;;;;;;1.73;0.98;;;9.90;98.00;;;;;;5084905;28;20024;-66
2022/04/16 08:40:16;;;;;;;3.17;0.93;;;9.90;96.30;;;;;;5095884;28;20486;-66
2022/04/16 08:42:44;;;;;;;3.42;0.70;;;9.90;90.70;;;;;;5088098;28;20036;-65
2022/04/16 08:45:12;;;;;;;1.92;0.70;;;9.90;83.90;;;;;;5100883;28;20035;-66
2022/04/16 08:47:38;;;;;;;1.05;0.52;;;9.70;83.10;;;;;;5091838;28;20636;-66
2022/04/16 08:50:09;;;;;;;1.17;0.63;;;9.60;81.50;;;;;;5090791;28;20419;-66
2022/04/16 08:52:37;;;;;;;1.48;0.75;;;9.70;87.90;;;;;;5101145;28;20461;-66
2022/04/16 08:55:05;;;;;;;1.65;0.70;;;9.80;86.20;;;;;;5086851;28;20068;-66
2022/04/16 08:57:31;;;;;;;0.95;0.80;;;10.00;80.10;;;;;;5085575;28;20488;-66
2022/04/16 08:59:57;;;;;;;1.10;0.70;;;10.00;78.50;;;;;;5097495;28;20162;-66
2022/04/16 09:02:25;;;;;;;1.00;0.77;;;10.00;77.50;;;;;;5087095;28;20074;-67
2022/04/16 09:05:05;;;;;;;0.73;0.73;;;10.00;77.90;;;;;;5092812;28;20481;-66
2022/04/16 09:07:31;;;;;;;1.50;0.70;;;10.10;77.50;;;;;;5086474;28;20032;-65
2022/04/16 09:10:07;;;;;;;4.78;1.00;;;10.00;73.60;;;;;;5086280;28;20046;-66
2022/04/16 09:12:37;;;;;;;1.65;0.60;;;10.00;74.20;;;;;;5087080;28;20020;-66
2022/04/16 09:15:10;;;;;;;2.50;0.57;;;10.10;77.10;;;;;;5103793;28;20100;-66
2022/04/16 09:17:37;;;;;;;1.85;0.60;;;10.10;72.00;;;;;;5100969;28;20035;-64
2022/04/16 09:20:08;;;;;;;1.20;0.68;;;10.10;74.90;;;;;;5086119;28;20388;-65
2022/04/16 09:22:35;;;;;;;0.50;0.50;;;10.00;72.10;;;;;;5085758;28;20085;-65
2022/04/16 09:25:02;;;;;;;1.55;0.50;;;10.00;73.80;;;;;;5083737;28;20576;-66
2022/04/16 09:27:43;;;;;;;0.52;0.52;;;10.00;67.60;;;;;;5092857;28;20153;-66
2022/04/16 09:30:09;;;;;;;1.73;0.70;;;10.00;72.60;;;;;;5094159;28;20446;-66
2022/04/16 09:32:43;;;;;;;2.33;0.63;;;10.20;72.10;;;;;;5087858;28;20035;-65
2022/04/16 09:35:20;;;;;;;7.28;1.52;;;10.30;74.30;;;;;;5094384;28;20036;-66
2022/04/16 09:38:00;;;;;;;3.00;1.45;;;10.30;78.40;;;;;;5097593;28;20031;-66
2022/04/16 09:40:27;;;;;;;1.63;0.82;;;10.50;78.90;;;;;;5091819;28;20028;-66
2022/04/16 09:42:55;;;;;;;5.50;1.20;;;10.60;78.20;;;;;;5098808;28;20059;-66
2022/04/16 09:45:20;;;;;;;2.53;1.20;;;10.60;78.20;;;;;;5092861;28;20031;-66
2022/04/16 09:47:51;;;;;;;5.57;1.17;;;10.60;78.00;;;;;;5092162;28;20024;-66
2022/04/16 09:50:22;;;;;;;1.88;0.90;;;10.70;76.50;;;;;;5095290;28;20023;-66
2022/04/16 09:52:56;;;;;;;2.88;0.80;;;10.70;76.80;;;;;;5094853;28;20020;-66
2022/04/16 09:55:24;;;;;;;2.08;0.90;;;10.90;73.50;;;;;;5084169;28;20108;-66
2022/04/16 09:57:52;;;;;;;1.33;1.00;;;11.00;76.80;;;;;;5083219;28;20028;-67
2022/04/16 10:00:18;;;;;;;2.10;0.90;;;11.10;75.50;;;;;;5098213;28;20529;-66
2022/04/16 10:02:45;;;;;;;1.50;0.80;;;11.10;76.60;;;;;;5092076;28;20032;-66
2022/04/16 10:05:11;;;;;;;1.17;0.70;;;11.10;74.30;;;;;;5094554;28;20077;-66
2022/04/16 10:07:37;;;;;;;1.80;0.80;;;11.00;74.50;;;;;;5091827;28;20023;-66
2022/04/16 10:10:09;;;;;;;1.17;0.68;;;11.00;76.40;;;;;;5098073;28;20019;-67
2022/04/16 10:15:22;;;;;;;0.93;0.60;;;11.00;75.40;;;;;;5080637;28;20396;-66
2022/04/16 10:17:52;;;;;;;1.17;0.77;;;11.10;70.70;;;;;;5099988;28;20023;-66
2022/04/16 10:20:20;;;;;;;1.90;0.75;;;11.20;73.50;;;;;;5087799;28;20036;-66
2022/04/16 10:23:03;;;;;;;3.33;0.73;;;11.20;77.50;;;;;;5098192;28;20018;-66
2022/04/16 10:25:34;;;;;;;1.20;0.80;;;11.20;77.40;;;;;;5086970;28;20724;-66
2022/04/16 10:28:08;;;;;;;3.08;0.60;;;11.10;75.50;;;;;;5081786;28;20470;-65
2022/04/16 10:30:42;;;;;;;1.60;0.82;;;11.00;70.20;;;;;;5090397;28;20074;-66
2022/04/16 10:33:22;;;;;;;4.47;0.68;;;11.00;74.00;;;;;;5088419;28;20032;-66
2022/04/16 10:35:50;;;;;;;1.15;0.60;;;11.00;75.80;;;;;;5084850;28;20024;-65
2022/04/16 10:38:26;;;;;;;1.77;0.60;;;11.10;71.30;;;;;;5090314;28;20404;-65
2022/04/16 10:41:08;;;;;;;2.97;0.70;;;11.10;72.20;;;;;;5092801;28;20032;-66
2022/04/16 10:43:34;;;;;;;0.82;0.60;;;11.10;70.60;;;;;;5095669;28;20047;-67
2022/04/16 10:46:08;;;;;;;1.95;0.88;;;11.10;65.20;;;;;;5097825;28;20043;-66
2022/04/16 10:48:44;;;;;;;1.73;0.90;;;11.20;63.60;;;;;;5099596;28;20082;-66
2022/04/16 10:51:10;;;;;;;0.90;0.68;;;11.20;66.30;;;;;;5090281;28;20438;-66
2022/04/16 10:53:38;;;;;;;2.53;0.80;;;11.30;64.60;;;;;;5102039;28;20027;-66
2022/04/16 10:56:15;;;;;;;1.08;0.68;;;11.40;62.30;;;;;;5096334;28;20089;-66
2022/04/16 10:58:48;;;;;;;0.77;0.70;;;11.40;64.70;;;;;;5094980;28;20028;-66
2022/04/16 11:01:26;;;;;;;4.97;0.80;;;11.40;63.80;;;;;;5091908;28;20106;-66
2022/04/16 11:03:54;;;;;;;1.33;0.60;;;11.50;64.70;;;;;;5097474;28;20036;-65
2022/04/16 11:06:19;;;;;;;1.33;0.60;;;11.60;67.70;;;;;;5098983;28;20020;-66
2022/04/16 11:08:45;;;;;;;1.52;0.80;;;11.60;60.30;;;;;;5098192;28;20090;-65
2022/04/16 11:11:14;;;;;;;1.05;0.75;;;11.70;63.80;;;;;;5090269;28;20076;-65
2022/04/16 11:13:42;;;;;;;2.80;0.70;;;11.70;63.60;;;;;;5091720;28;20051;-66
2022/04/16 11:16:09;;;;;;;1.30;0.60;;;11.80;59.20;;;;;;5092188;28;20020;-65
2022/04/16 11:18:45;;;;;;;0.98;0.60;;;11.90;60.40;;;;;;5095663;28;20262;-66
2022/04/16 11:21:25;;;;;;;1.48;0.60;;;12.00;58.20;;;;;;5094360;28;20048;-66
2022/04/16 11:23:52;;;;;;;1.33;0.70;;;12.00;58.30;;;;;;5093442;28;20027;-65
2022/04/16 11:34:35;;;;;;;1.83;0.88;;;12.00;61.50;;;;;;5090976;28;20109;-66
2022/04/16 11:37:01;;;;;;;1.38;0.90;;;12.10;62.10;;;;;;5088379;28;20418;-66
2022/04/16 11:39:30;;;;;;;1.20;0.93;;;12.10;61.60;;;;;;5099083;28;20032;-65
2022/04/16 11:42:02;;;;;;;3.42;0.85;;;12.00;62.00;;;;;;5093249;28;20043;-66
2022/04/16 11:44:38;;;;;;;1.10;0.90;;;12.00;61.00;;;;;;5091270;28;20383;-66
2022/04/16 11:47:25;;;;;;;2.00;0.80;;;12.10;61.20;;;;;;5091440;28;20055;-65
2022/04/16 11:49:59;;;;;;;1.80;0.95;;;12.20;62.10;;;;;;5082395;28;20036;-66
2022/04/16 11:52:32;;;;;;;3.03;1.10;;;12.20;61.80;;;;;;5089291;28;20032;-65
2022/04/16 11:55:01;;;;;;;1.00;0.70;;;12.20;63.40;;;;;;5080193;28;20035;-65
2022/04/16 11:58:20;;;;;;;1.33;0.80;;;12.20;60.60;;;;;;5079595;28;20613;-65
2022/04/16 12:00:55;;;;;;;2.05;0.90;;;12.20;62.40;;;;;;5092701;28;20028;-66
2022/04/16 12:03:21;;;;;;;1.60;1.00;;;12.30;61.40;;;;;;5086004;28;20440;-66
2022/04/16 12:05:47;;;;;;;1.42;0.90;;;12.40;65.10;;;;;;5086086;28;20050;-65
2022/04/16 12:08:14;;;;;;;1.45;0.82;;;12.40;61.90;;;;;;5099319;28;20027;-65
2022/04/16 12:10:43;;;;;;;2.00;0.80;;;12.40;60.00;;;;;;5100385;28;20426;-66
2022/04/16 12:13:10;;;;;;;1.08;0.98;;;12.50;63.20;;;;;;5106419;28;20378;-66
2022/04/16 12:15:43;;;;;;;1.05;0.80;;;12.50;63.70;;;;;;5085986;28;20192;-66
2022/04/16 12:18:15;;;;;;;;;;;12.70;64.40;;;;;;5106971;28;20027;-66
2022/04/16 12:20:43;;;;;;;1.33;1.08;;;12.90;64.70;;;;;;5107252;28;20325;-66
2022/04/16 12:23:14;;;;;;;3.03;1.10;;;13.00;62.00;;;;;;5096130;28;20290;-66
2022/04/16 12:25:42;;;;;;;2.13;1.20;;;13.20;61.60;;;;;;5094857;28;20424;-66
2022/04/16 12:28:12;;;;;;;3.28;1.20;;;13.30;60.00;;;;;;5097105;28;20379;-66
2022/04/16 12:30:38;;;;;;;4.25;1.25;;;13.50;56.70;;;;;;5102563;28;20454;-66
2022/04/16 12:33:13;;;;;;;9.00;1.42;;;13.70;56.90;;;;;;5085864;28;20031;-66
2022/04/16 12:35:40;;;;;;;2.13;1.00;;;;;;;;;;5084758;28;20046;-67
2022/04/16 12:38:07;;;;;;;1.95;0.90;;;14.30;55.80;;;;;;5086272;28;20039;-67
2022/04/16 12:40:34;;;;;;;1.40;0.90;;;14.30;56.10;;;;;;5087377;28;20037;-67
2022/04/16 12:43:01;;;;;;;2.40;1.05;;;14.40;56.90;;;;;;5096886;28;20034;-67
2022/04/16 12:45:30;;;;;;;1.00;0.90;;;14.50;57.30;;;;;;5095034;28;20024;-66
2022/04/16 12:47:56;;;;;;;2.20;1.10;;;14.40;53.40;;;;;;5086293;28;20314;-67
2022/04/16 12:50:22;;;;;;;2.67;0.90;;;14.40;52.30;;;;;;5086939;28;20519;-67
2022/04/16 12:52:48;;;;;;;1.02;0.80;;;14.40;52.20;;;;;;5092433;28;20051;-67
2022/04/16 12:55:14;;;;;;;1.42;0.90;;;14.50;55.00;;;;;;5081906;28;20028;-67
2022/04/16 12:57:40;;;;;;;2.13;1.13;;;14.40;53.60;;;;;;5085187;28;20036;-68
2022/04/16 13:00:09;;;;;;;3.22;1.00;;;14.40;52.20;;;;;;5097291;28;20032;-66
2022/04/16 13:02:42;;;;;;;2.15;0.90;;;14.40;52.40;;;;;;5081825;28;20491;-66
2022/04/16 13:05:09;;;;;;;3.63;1.20;;;14.40;52.40;;;;;;5081643;28;20538;-66
2022/04/16 13:07:39;;;;;;;1.80;1.00;;;14.40;53.00;;;;;;5085538;28;20089;-67
2022/04/16 13:10:06;;;;;;;1.92;1.00;;;14.40;54.20;;;;;;5095360;28;20102;-66